Aeroporto :







RITROVATECI SU...

 
LOGIN :

Iscrizione | Disclaimer

   EN    FR    IT 

 









Sommario :    VFR   VFR Marginale   IFR   IFR Intensivo   IFR Molto Intensivo
Visibilità : 
Base nubi : 
>= 8 km
>= 3000ft
5 / 8 km
1000 / 3000 ft
1500m / 5 km
500 / 1000 ft
800 / 1500m
200 / 500 ft
< 800m
< 200 ft
Simboli :   Temporali  Nebbia  Neve Forte  Precipitazioni Forti  Vento > 20 kt







- Altitudine del aeroporto : 244 ft
- Codice IATA : YQB


CYQB - Quebec - Jean Lesage Int.

ULTIMO METAR :
  • 251200Z 05004KT 30SM FEW240 13/08 A3042 RMK CI1 CI TR SLP303

METARs OBSOLETI :
  • 251100Z 02005KT 30SM FEW240 11/07 A3040 RMK CI1 CI TR CONTRAILS SLP299

TAF TAF CYQB
Valido dal 25 a 12 ore il 26 a 12 ore UTC


251138Z 2512/2612 03005KT P6SM FEW240
FM251400 09006KT P6SM SKC
BECMG 2522/2524 02006KT RMK NXT FCST BY 251800Z
ATIS : ENG : +1 418-871-6893 FRA : +1 418-871-6895
Nessun NOTAM noto per questo aeroporto.



MetMap, La meteo Aeronautica in un colpo d'occhio ! - Copyright ORBIFLY Dicembre 2007 - Disclaimer

ORBIFLY MET'MAP TEAM :

Programmazione e sviluppo : Alexandra Zaïnal
Concezione e sviluppo : Baudouin d'Aumeries
Co-Programmazione e sviluppo : Marc-Olivier Méhu
Supporto tecnico e logistico : Manuel Goepfert
Aiuto per la traduzione : Arnaldo La Scala

Contatto : metmap@orbifly.com




FONTI E CREDITI :

   NOAA